Time;durP1;ratioP1;P1;durP2;ratioP2;P2;SDS_P1;SDS_P2;PMS_P1;PMS_P2;Temp;Humidity;BMP_temperature;BMP_pressure;BME280_temperature;BME280_humidity;BME280_pressure;Samples;Min_cycle;Max_cycle;Signal;HPM_P1;HPM_P2
2023/10/02 00:01:17;;;;;;;20.63;11.27;;;;;;;18.62;70.72;101948.28;5099305;28;20035;-67
2023/10/02 00:03:48;;;;;;;22.25;11.35;;;;;;;18.64;70.73;101948.88;5092738;28;20502;-67
2023/10/02 00:06:16;;;;;;;24.58;11.82;;;;;;;18.59;70.98;101942.41;5100792;28;20024;-67
2023/10/02 00:08:42;;;;;;;21.63;10.38;;;;;;;18.55;70.78;101944.94;5091669;28;20380;-67
2023/10/02 00:11:39;;;;;;;20.75;11.07;;;;;;;18.62;71.01;101947.47;5108588;28;20027;-67
2023/10/02 00:14:18;;;;;;;23.15;11.70;;;;;;;18.56;71.13;101945.78;5105112;28;20097;-66
2023/10/02 00:17:00;;;;;;;20.88;11.02;;;;;;;18.60;71.05;101949.72;5104756;28;20024;-67
2023/10/02 00:19:38;;;;;;;19.38;11.13;;;;;;;18.57;71.18;101951.13;5095186;28;20123;-67
2023/10/02 00:22:06;;;;;;;20.00;11.25;;;;;;;18.62;70.90;101947.47;5100224;28;20116;-67
2023/10/02 00:24:41;;;;;;;22.48;11.43;;;;;;;18.61;70.90;101946.63;5100666;28;20068;-67
2023/10/02 00:27:12;;;;;;;18.95;10.35;;;;;;;18.61;70.96;101955.06;5109069;28;20027;-67
2023/10/02 00:29:57;;;;;;;18.67;10.50;;;;;;;18.60;70.92;101939.31;5096187;28;20072;-67
2023/10/02 00:32:26;;;;;;;22.35;11.75;;;;;;;18.55;70.99;101936.50;5098709;28;20089;-67
2023/10/02 00:34:52;;;;;;;22.30;11.23;;;;;;;18.54;71.03;101948.03;5100495;28;20032;-67
2023/10/02 00:37:18;;;;;;;21.23;10.90;;;;;;;18.47;71.10;101941.81;5108930;28;20054;-67
2023/10/02 00:39:47;;;;;;;20.85;10.80;;;;;;;18.50;71.15;101944.06;5096238;28;20028;-67
2023/10/02 00:42:16;;;;;;;19.88;11.00;;;;;;;18.47;71.07;101939.00;5100261;28;20032;-67
2023/10/02 00:44:55;;;;;;;24.75;11.90;;;;;;;18.45;71.06;101939.31;5092329;28;20416;-66
2023/10/02 00:47:42;;;;;;;18.33;10.35;;;;;;;18.47;71.15;101941.81;5090834;28;20032;-67
2023/10/02 00:50:16;;;;;;;21.50;11.25;;;;;;;18.37;71.03;101932.25;5092114;28;20024;-67
2023/10/02 00:53:00;;;;;;;20.73;10.40;;;;;;;18.37;70.91;101929.44;5091859;28;20085;-67
2023/10/02 00:55:33;;;;;;;20.98;10.77;;;;;;;18.34;71.27;101924.38;5092195;28;20190;-66
2023/10/02 00:58:03;;;;;;;22.27;11.55;;;;;;;18.30;71.33;101928.03;5094100;28;20119;-66
2023/10/02 01:00:36;;;;;;;18.40;10.82;;;;;;;18.26;71.14;101938.16;5091788;28;20096;-66
2023/10/02 01:03:08;;;;;;;19.48;10.90;;;;;;;18.24;71.30;101929.16;5092160;28;20028;-66
2023/10/02 01:05:50;;;;;;;18.30;10.45;;;;;;;18.28;71.02;101935.91;5093895;28;20109;-66
2023/10/02 01:08:23;;;;;;;;;;;;;;;18.46;70.46;101931.72;5103327;28;20024;-67
2023/10/02 01:10:56;;;;;;;17.65;10.10;;;;;;;18.23;71.29;101925.50;5112326;28;19912;-67
2023/10/02 01:13:27;;;;;;;20.67;10.50;;;;;;;18.24;71.36;101927.19;5112294;28;20080;-67
2023/10/02 01:15:53;;;;;;;18.25;9.65;;;;;;;18.22;70.93;101923.81;5110555;28;20023;-66
2023/10/02 01:18:22;;;;;;;22.60;11.43;;;;;;;18.18;71.20;101919.88;5104742;28;20107;-66
2023/10/02 01:21:10;;;;;;;19.75;10.75;;;;;;;18.19;71.10;101926.31;5112315;28;20031;-66
2023/10/02 01:24:11;;;;;;;21.40;11.00;;;;;;;18.19;71.20;101924.38;5110733;28;20035;-66
2023/10/02 01:26:43;;;;;;;18.88;10.88;;;;;;;18.18;71.34;101917.06;5112002;28;20172;-66
2023/10/02 01:29:12;;;;;;;17.92;10.18;;;;;;;18.13;71.32;101917.91;5108365;28;20062;-66
2023/10/02 01:31:52;;;;;;;19.92;11.27;;;;;;;18.10;71.85;101917.59;5090831;28;20093;-66
2023/10/02 01:34:34;;;;;;;20.33;10.75;;;;;;;18.06;72.06;101916.47;5106604;28;20038;-66
2023/10/02 01:37:32;;;;;;;18.70;10.98;;;;;;;18.04;72.13;101908.34;5105596;28;20503;-67
2023/10/02 01:40:24;;;;;;;21.55;11.48;;;;;;;18.06;72.03;101910.84;5090902;28;20039;-67
2023/10/02 01:42:38;;;;;;;19.80;11.27;;;;;;;18.04;71.98;101919.59;5091955;28;20040;-66
2023/10/02 01:45:03;;;;;;;20.92;11.05;;;;;;;18.03;72.18;101906.63;5098975;28;20043;-67
2023/10/02 01:47:39;;;;;;;20.23;10.80;;;;;;;18.00;71.90;101921.25;5111556;28;20024;-66
2023/10/02 01:50:05;;;;;;;21.33;10.70;;;;;;;18.00;71.98;101912.81;5107030;28;20103;-66
2023/10/02 01:52:31;;;;;;;20.17;11.40;;;;;;;17.98;71.88;101908.59;5098299;28;20165;-67
2023/10/02 01:54:58;;;;;;;19.95;11.02;;;;;;;17.91;72.48;101915.31;5090998;28;20115;-66
2023/10/02 01:57:24;;;;;;;20.98;11.18;;;;;;;17.97;72.58;101915.34;5090343;28;20024;-66
2023/10/02 01:59:49;;;;;;;22.10;11.43;;;;;;;17.95;72.59;101907.19;5093641;28;20041;-66
2023/10/02 02:02:15;;;;;;;18.88;11.27;;;;;;;17.94;72.58;101910.28;5102183;28;20020;-67
2023/10/02 02:04:42;;;;;;;24.33;11.63;;;;;;;17.94;72.36;101913.09;5094682;28;20470;-67
2023/10/02 02:07:10;;;;;;;19.67;11.38;;;;;;;17.88;72.78;101903.78;5095240;28;20391;-67
2023/10/02 02:09:43;;;;;;;21.63;11.65;;;;;;;17.90;72.91;101908.00;5096417;28;20032;-66
2023/10/02 02:12:10;;;;;;;22.38;11.07;;;;;;;17.93;72.73;101905.78;5108283;28;20435;-65
2023/10/02 02:14:52;;;;;;;22.88;10.98;;;;;;;17.94;72.61;101910.28;5094644;28;20107;-66
2023/10/02 02:17:22;;;;;;;;;;;;;;;18.13;71.70;101915.09;5094991;28;20081;-66
2023/10/02 02:19:48;;;;;;;20.25;10.57;;;;;;;17.88;72.35;101910.28;5112196;28;19925;-67
2023/10/02 02:22:31;;;;;;;20.67;10.90;;;;;;;17.95;72.46;101906.34;5115745;28;20027;-69
2023/10/02 02:24:58;;;;;;;20.30;11.25;;;;;;;17.87;72.32;101905.75;5114653;28;20126;-66
2023/10/02 02:27:27;;;;;;;21.58;11.55;;;;;;;17.83;72.28;101907.44;5106801;28;20296;-67
2023/10/02 02:29:56;;;;;;;21.23;11.52;;;;;;;17.84;72.60;101908.25;5094584;28;20421;-66
2023/10/02 02:35:09;;;;;;;19.63;11.18;;;;;;;17.80;72.68;101899.56;5100883;28;20067;-66
2023/10/02 02:37:35;;;;;;;17.95;10.55;;;;;;;17.77;72.97;101905.75;5094930;28;20031;-66
2023/10/02 02:42:56;;;;;;;19.73;11.13;;;;;;;17.81;72.43;101904.06;5095912;28;20556;-66
2023/10/02 02:45:29;;;;;;;20.63;11.05;;;;;;;17.86;72.56;101897.63;5093983;28;20055;-67
2023/10/02 02:47:55;;;;;;;19.25;10.40;;;;;;;17.78;72.81;101892.53;5104148;28;20028;-66
2023/10/02 02:50:28;;;;;;;20.42;11.80;;;;;;;17.80;72.93;101891.16;5094062;28;20497;-66
2023/10/02 02:53:16;;;;;;;;;;;;;;;17.99;71.92;101890.63;5094406;28;20035;-66
2023/10/02 02:55:38;;;;;;;22.02;11.10;;;;;;;17.82;72.57;101888.06;5095372;28;19918;-66
2023/10/02 02:58:07;;;;;;;22.85;11.93;;;;;;;17.76;72.64;101889.97;5114589;28;20027;-66
2023/10/02 03:00:35;;;;;;;21.65;11.07;;;;;;;17.76;72.71;101897.56;5104748;28;20042;-66
2023/10/02 03:03:29;;;;;;;20.77;11.10;;;;;;;17.71;73.02;101887.13;5094397;28;20031;-67
2023/10/02 03:05:52;;;;;;;23.98;11.73;;;;;;;17.73;73.16;101886.88;5109956;28;20036;-67
2023/10/02 03:08:18;;;;;;;19.45;11.40;;;;;;;17.69;73.17;101889.41;5113932;28;20027;-68
2023/10/02 03:10:46;;;;;;;19.80;11.32;;;;;;;17.70;73.06;101891.06;5094592;28;20054;-66
2023/10/02 03:13:18;;;;;;;22.77;11.02;;;;;;;17.69;73.15;101885.75;5093150;28;20024;-67
2023/10/02 03:15:47;;;;;;;21.13;11.05;;;;;;;17.68;73.05;101884.88;5093074;28;20512;-66
2023/10/02 03:18:23;;;;;;;24.50;11.63;;;;;;;17.63;73.19;101873.63;5094008;28;20028;-67
2023/10/02 03:20:51;;;;;;;20.55;10.90;;;;;;;17.61;73.27;101870.28;5094969;28;20565;-67
2023/10/02 03:23:18;;;;;;;19.85;11.27;;;;;;;17.61;73.18;101871.13;5091183;28;20040;-67
2023/10/02 03:25:45;;;;;;;20.70;11.18;;;;;;;17.59;73.29;101869.69;5094635;28;20467;-65
2023/10/02 03:28:27;;;;;;;19.67;11.40;;;;;;;17.60;73.35;101862.94;5092043;28;20063;-66
2023/10/02 03:30:55;;;;;;;20.70;11.65;;;;;;;17.58;73.21;101865.22;5100973;28;20031;-65
2023/10/02 03:33:26;;;;;;;23.02;11.25;;;;;;;17.62;73.06;101869.16;5102162;28;20030;-65
2023/10/02 03:36:10;;;;;;;21.42;11.57;;;;;;;17.60;73.14;101869.41;5092803;28;20038;-65
2023/10/02 03:38:41;;;;;;;21.65;12.13;;;;;;;17.60;73.10;101869.41;5092831;28;20032;-66
2023/10/02 03:41:08;;;;;;;25.13;12.25;;;;;;;17.60;73.23;101863.78;5095794;28;20038;-65
2023/10/02 03:43:34;;;;;;;20.60;11.23;;;;;;;17.57;73.23;101863.53;5092725;28;20024;-65
2023/10/02 03:46:13;;;;;;;24.27;12.35;;;;;;;17.59;73.17;101867.72;5093144;28;20093;-65
2023/10/02 03:48:39;;;;;;;18.23;11.10;;;;;;;17.56;73.22;101873.06;5093256;28;20031;-65
2023/10/02 03:51:08;;;;;;;20.00;10.85;;;;;;;17.61;73.04;101864.66;5093289;28;20375;-66
2023/10/02 03:53:35;;;;;;;20.92;11.75;;;;;;;17.63;72.92;101865.22;5093390;28;20060;-66
2023/10/02 03:58:51;;;;;;;21.23;10.98;;;;;;;17.59;72.96;101875.31;5093016;28;20042;-66
2023/10/02 04:01:31;;;;;;;22.13;11.20;;;;;;;17.63;72.89;101865.22;5094107;28;20036;-66
2023/10/02 04:06:35;;;;;;;24.67;10.88;;;;;;;17.59;72.82;101861.28;5093186;28;20032;-66
2023/10/02 04:09:36;;;;;;;19.42;10.60;;;;;;;17.61;72.79;101875.91;5105139;28;20019;-66
2023/10/02 04:11:54;;;;;;;23.88;11.68;;;;;;;17.57;72.68;101863.53;5104675;28;20482;-66
2023/10/02 04:14:33;;;;;;;24.42;12.32;;;;;;;17.54;73.06;101864.91;5109080;28;20019;-66
2023/10/02 04:19:43;;;;;;;21.20;12.02;;;;;;;17.51;72.94;101873.88;5113134;28;20039;-66
2023/10/02 04:22:16;;;;;;;21.65;11.40;;;;;;;17.55;72.79;101868.56;5101936;28;20028;-66
2023/10/02 04:24:53;;;;;;;23.50;12.50;;;;;;;17.53;72.99;101868.00;5090616;28;20048;-66
2023/10/02 04:28:00;;;;;;;23.95;12.30;;;;;;;17.51;72.94;101862.66;5092069;28;20057;-66
2023/10/02 04:32:59;;;;;;;20.67;11.88;;;;;;;17.51;73.02;101867.44;5091768;28;20035;-66
2023/10/02 04:38:14;;;;;;;21.00;11.70;;;;;;;17.46;72.92;101868.25;5091804;28;20059;-66
2023/10/02 04:40:51;;;;;;;21.67;11.30;;;;;;;17.46;72.70;101864.59;5094462;28;20462;-66
2023/10/02 04:45:47;;;;;;;19.88;11.10;;;;;;;17.47;72.66;101860.69;5095879;28;20561;-66
2023/10/02 04:48:13;;;;;;;22.50;11.85;;;;;;;17.42;72.86;101864.31;5098558;28;20071;-66
2023/10/02 04:50:45;;;;;;;25.77;11.60;;;;;;;17.40;72.98;101858.94;5091505;28;20035;-67
2023/10/02 04:55:43;;;;;;;22.65;11.95;;;;;;;17.40;72.80;101864.56;5092031;28;20370;-66
2023/10/02 04:58:14;;;;;;;19.65;11.25;;;;;;;17.40;72.85;101855.31;5091432;28;20023;-66
2023/10/02 05:03:37;;;;;;;20.80;11.45;;;;;;;17.30;73.24;101856.13;5093348;28;20293;-66
2023/10/02 05:06:03;;;;;;;22.35;11.85;;;;;;;17.28;73.03;101855.53;5090921;28;20032;-66
2023/10/02 05:08:40;;;;;;;19.95;11.02;;;;;;;17.29;72.94;101857.25;5095386;28;20028;-66
2023/10/02 05:11:23;;;;;;;22.45;12.70;;;;;;;17.29;72.88;101851.63;5098430;28;20020;-66
2023/10/02 05:16:33;;;;;;;20.70;10.80;;;;;;;17.22;72.61;101853.84;5100558;28;20035;-65
2023/10/02 05:19:04;;;;;;;20.65;11.45;;;;;;;17.25;72.66;101858.91;5102172;28;20160;-66
2023/10/02 05:24:12;;;;;;;23.17;11.43;;;;;;;17.21;72.53;101866.16;5099098;28;20074;-66
2023/10/02 05:26:41;;;;;;;21.15;11.45;;;;;;;17.20;72.47;101864.47;5096462;28;20044;-66
2023/10/02 05:29:08;;;;;;;20.25;11.80;;;;;;;17.20;72.76;101863.63;5094332;28;20104;-66
2023/10/02 05:31:36;;;;;;;24.58;11.00;;;;;;;17.23;72.71;101858.34;5090006;28;20125;-68
2023/10/02 05:34:08;;;;;;;20.90;11.60;;;;;;;17.17;72.77;101859.41;5098340;28;20023;-67
2023/10/02 05:36:35;;;;;;;26.08;12.55;;;;;;;17.16;72.94;101863.34;5091297;28;20036;-64
2023/10/02 05:39:46;;;;;;;21.77;11.07;;;;;;;17.13;72.65;101858.28;5090688;28;20024;-64
2023/10/02 05:41:51;;;;;;;20.73;11.48;;;;;;;17.12;72.88;101863.03;5087674;28;20039;-64
2023/10/02 05:44:25;;;;;;;25.77;11.95;;;;;;;17.13;72.92;101861.94;5090204;28;20050;-65
2023/10/02 05:47:04;;;;;;;23.42;11.50;;;;;;;17.09;73.39;101862.75;5095237;28;20062;-65
2023/10/02 05:49:30;;;;;;;23.88;12.75;;;;;;;17.06;72.74;101861.34;5086552;28;20032;-63
2023/10/02 05:51:55;;;;;;;21.52;11.80;;;;;;;17.06;73.31;101866.94;5097950;28;20547;-64
2023/10/02 05:54:35;;;;;;;21.23;12.05;;;;;;;17.08;73.33;101883.50;5090211;28;20098;-65
2023/10/02 05:57:09;;;;;;;23.20;12.55;;;;;;;17.02;73.60;101881.78;5093765;28;20043;-65
2023/10/02 05:59:45;;;;;;;24.25;11.93;;;;;;;17.01;73.46;101888.50;5088544;28;20081;-65
2023/10/02 06:02:17;;;;;;;21.48;11.57;;;;;;;17.06;73.53;101885.75;5092720;28;20475;-66
2023/10/02 06:04:47;;;;;;;22.15;12.02;;;;;;;17.02;73.79;101887.41;5088481;28;20028;-64
2023/10/02 06:07:40;;;;;;;22.80;12.38;;;;;;;17.02;73.94;101884.59;5091273;28;20038;-64
2023/10/02 06:10:09;;;;;;;25.13;12.85;;;;;;;17.05;73.88;101878.41;5085229;28;20154;-63
2023/10/02 06:12:42;;;;;;;28.40;13.05;;;;;;;17.10;73.86;101875.66;5088869;28;20032;-63
2023/10/02 06:17:53;;;;;;;25.73;13.48;;;;;;;17.07;73.82;101881.81;5088633;28;20047;-62
2023/10/02 06:20:18;;;;;;;24.63;12.57;;;;;;;17.09;74.13;101886.03;5092720;28;20795;-63
2023/10/02 06:22:47;;;;;;;23.38;12.20;;;;;;;17.10;74.15;101887.72;5088320;28;20146;-63
2023/10/02 06:25:18;;;;;;;31.60;13.02;;;;;;;17.10;74.17;101895.31;5090499;28;20048;-62
2023/10/02 06:27:47;;;;;;;24.38;12.82;;;;;;;17.15;74.24;101882.13;5087596;28;20035;-63
2023/10/02 06:30:16;;;;;;;24.67;13.68;;;;;;;17.16;74.06;101882.97;5091583;28;20028;-64
2023/10/02 06:32:53;;;;;;;26.23;13.23;;;;;;;17.16;73.94;101888.59;5089331;28;20022;-64
2023/10/02 06:35:22;;;;;;;25.60;13.63;;;;;;;17.16;74.27;101897.00;5090012;28;20066;-64
2023/10/02 06:37:52;;;;;;;27.77;13.40;;;;;;;17.26;74.93;101890.63;5094748;28;20031;-64
2023/10/02 06:40:23;;;;;;;39.22;13.77;;;;;;;17.36;76.23;101888.69;5096653;28;20043;-64
2023/10/02 06:42:51;;;;;;;26.50;13.93;;;;;;;17.31;74.53;101887.81;5088559;28;20034;-65
2023/10/02 06:45:20;;;;;;;31.48;13.77;;;;;;;17.36;74.16;101897.09;5087931;28;20119;-63
2023/10/02 06:47:48;;;;;;;23.42;13.52;;;;;;;17.39;74.14;101901.34;5090484;28;20030;-65
2023/10/02 06:53:10;;;;;;;27.77;13.82;;;;;;;17.36;74.04;101908.31;5056227;28;20033;-64
2023/10/02 06:55:37;;;;;;;26.50;13.82;;;;;;;17.36;74.17;101902.72;5106332;28;20031;-65
2023/10/02 06:58:07;;;;;;;29.17;14.45;;;;;;;17.38;74.06;101897.69;5103079;28;20027;-65
2023/10/02 07:01:18;;;;;;;30.55;14.90;;;;;;;17.42;74.06;101898.00;5094136;28;20067;-66
2023/10/02 07:03:17;;;;;;;25.50;13.38;;;;;;;17.42;73.72;101884.78;5089147;28;20032;-65
2023/10/02 07:05:45;;;;;;;24.35;13.23;;;;;;;17.43;73.89;101891.25;5094686;28;20450;-64
2023/10/02 07:08:26;;;;;;;25.50;13.65;;;;;;;17.45;73.86;101880.59;5098258;28;20028;-65
2023/10/02 07:10:52;;;;;;;25.92;13.13;;;;;;;17.46;74.11;101881.44;5105761;28;20035;-65
2023/10/02 07:13:31;;;;;;;26.50;13.85;;;;;;;17.53;73.78;101893.28;5095166;28;20368;-65
2023/10/02 07:15:57;;;;;;;27.77;14.10;;;;;;;17.52;74.14;101885.94;5094081;28;20056;-62
2023/10/02 07:18:35;;;;;;;24.33;13.38;;;;;;;17.60;74.17;101891.88;5098216;28;20116;-66
2023/10/02 07:21:07;;;;;;;28.15;13.60;;;;;;;17.64;73.88;101880.94;5095121;28;20031;-66
2023/10/02 07:23:37;;;;;;;27.15;12.88;;;;;;;17.71;73.67;101894.72;5099664;28;20418;-68
2023/10/02 07:26:04;;;;;;;26.55;13.60;;;;;;;17.73;74.37;101890.53;5095307;28;20026;-67
2023/10/02 07:28:29;;;;;;;26.75;13.35;;;;;;;17.78;73.56;101882.16;5094486;28;20031;-65
2023/10/02 07:30:56;;;;;;;26.42;13.27;;;;;;;17.80;74.24;101881.84;5095470;28;20114;-63
2023/10/02 07:33:22;;;;;;;26.85;13.25;;;;;;;17.82;73.69;101885.25;5098064;28;20476;-65
2023/10/02 07:35:54;;;;;;;26.77;14.18;;;;;;;17.89;73.90;101889.47;5099246;28;20043;-67
2023/10/02 07:38:30;;;;;;;29.83;13.82;;;;;;;17.91;74.00;101897.63;5103476;28;20028;-72
2023/10/02 07:41:08;;;;;;;26.23;13.75;;;;;;;17.94;73.60;101899.88;5100150;28;20023;-62
2023/10/02 07:43:34;;;;;;;27.13;13.88;;;;;;;17.99;73.42;101890.63;5101830;28;20051;-68
2023/10/02 07:46:14;;;;;;;31.20;13.27;;;;;;;18.02;73.60;101901.31;5099788;28;20047;-69
2023/10/02 07:48:55;;;;;;;25.58;13.57;;;;;;;18.01;73.28;101897.66;5097721;28;20028;-72
2023/10/02 07:51:30;;;;;;;25.73;14.60;;;;;;;18.02;73.35;101902.13;5097671;28;20039;-70
2023/10/02 07:53:58;;;;;;;29.05;14.20;;;;;;;18.01;74.02;101889.22;5097346;28;20027;-70
2023/10/02 07:56:24;;;;;;;28.00;14.00;;;;;;;18.01;73.44;101891.19;5096536;28;20028;-71
2023/10/02 07:59:00;;;;;;;25.65;13.75;;;;;;;18.01;73.53;101882.75;5099253;28;20032;-71
2023/10/02 08:01:27;;;;;;;23.60;10.93;;;;;;;18.13;74.39;101889.81;5097683;28;20027;-70
2023/10/02 08:03:56;;;;;;;26.50;13.18;;;;;;;18.05;73.79;101895.13;5098681;28;20093;-70
2023/10/02 08:11:50;;;;;;;29.02;13.48;;;;;;;18.05;73.63;101886.72;5104708;28;20528;-67
2023/10/02 08:14:34;;;;;;;25.88;13.50;;;;;;;18.08;73.81;101895.44;5106610;28;20027;-66
2023/10/02 08:17:21;;;;;;;25.13;13.27;;;;;;;18.18;73.50;101900.19;5090866;28;20099;-68
2023/10/02 08:19:59;;;;;;;26.55;13.98;;;;;;;18.29;73.99;101909.50;5093840;28;20147;-69
2023/10/02 08:22:51;;;;;;;26.73;13.52;;;;;;;18.38;73.76;101900.22;5094133;28;20032;-68
2023/10/02 08:25:13;;;;;;;26.17;13.68;;;;;;;18.55;73.57;101896.28;5089900;28;20494;-69
2023/10/02 08:27:58;;;;;;;26.30;13.95;;;;;;;18.66;73.24;101897.97;5093974;28;20023;-66
2023/10/02 08:30:31;;;;;;;28.38;13.70;;;;;;;18.77;72.74;101902.50;5090404;28;20055;-68
2023/10/02 08:33:09;;;;;;;27.23;14.43;;;;;;;18.95;72.68;101892.63;5093017;28;20035;-69
2023/10/02 08:35:37;;;;;;;28.35;14.75;;;;;;;19.10;72.00;101895.41;5097923;28;20478;-71
2023/10/02 08:38:21;;;;;;;26.20;14.40;;;;;;;19.26;71.81;101896.22;5090780;28;20479;-72
2023/10/02 08:41:00;;;;;;;27.35;14.27;;;;;;;19.48;71.79;101893.00;5090964;28;20043;-71
2023/10/02 08:43:32;;;;;;;25.92;13.60;;;;;;;19.63;71.29;101889.31;5099927;28;20031;-71
2023/10/02 08:45:58;;;;;;;28.10;14.25;;;;;;;19.80;70.80;101898.25;5096585;28;20119;-72
2023/10/02 08:48:25;;;;;;;25.67;13.65;;;;;;;19.92;70.82;101892.25;5102921;28;20020;-73
2023/10/02 08:50:52;;;;;;;23.70;13.30;;;;;;;20.03;70.52;101898.69;5097855;28;20042;-75
2023/10/02 08:53:22;;;;;;;25.88;12.77;;;;;;;20.15;69.93;101885.06;5092460;28;20139;-72
2023/10/02 08:58:16;;;;;;;26.73;13.60;;;;;;;20.12;69.12;101882.81;5111055;28;20490;-71
2023/10/02 09:01:22;;;;;;;24.88;14.32;;;;;;;20.02;69.60;101871.63;5094842;28;20062;-71
2023/10/02 09:04:21;;;;;;;26.02;13.18;;;;;;;19.92;69.47;101874.50;5101909;28;20040;-69
2023/10/02 09:06:43;;;;;;;26.35;13.93;;;;;;;19.84;69.91;101879.63;5093574;28;20040;-72
2023/10/02 09:09:13;;;;;;;26.52;13.60;;;;;;;19.82;70.38;101873.44;5093946;28;20032;-70
2023/10/02 09:11:39;;;;;;;27.42;13.30;;;;;;;19.78;70.33;101877.97;5090621;28;20054;-72
2023/10/02 09:14:16;;;;;;;27.85;13.82;;;;;;;19.76;70.59;101879.41;5090349;28;21455;-72
2023/10/02 09:16:45;;;;;;;28.63;13.50;;;;;;;19.74;70.94;101888.16;5091099;28;20097;-72
2023/10/02 09:19:31;;;;;;;25.60;13.70;;;;;;;19.70;71.19;101884.22;5098230;28;20032;-72
2023/10/02 09:22:06;;;;;;;24.58;13.27;;;;;;;19.67;71.15;101887.63;5098409;28;20035;-72
2023/10/02 09:24:41;;;;;;;26.50;13.45;;;;;;;19.64;71.08;101879.75;5090314;28;20043;-71
2023/10/02 09:27:23;;;;;;;28.40;14.05;;;;;;;19.63;71.10;101878.06;5097177;28;20138;-72
2023/10/02 09:30:19;;;;;;;26.92;14.05;;;;;;;19.62;71.67;101873.56;5098447;28;20478;-71
2023/10/02 09:32:50;;;;;;;23.83;13.25;;;;;;;19.61;71.81;101880.31;5091758;28;20577;-72
2023/10/02 09:35:23;;;;;;;30.45;14.68;;;;;;;19.62;71.81;101879.19;5093136;28;20085;-72
2023/10/02 09:38:06;;;;;;;25.45;13.85;;;;;;;19.59;71.66;101871.28;5099900;28;20035;-71
2023/10/02 09:40:54;;;;;;;24.63;13.52;;;;;;;19.58;71.78;101886.50;5104156;28;20043;-69
2023/10/02 09:43:28;;;;;;;29.00;14.27;;;;;;;19.55;71.94;101885.09;5094815;28;20031;-69
2023/10/02 09:46:15;;;;;;;27.73;13.82;;;;;;;19.54;71.83;101877.78;5100950;28;20506;-70
2023/10/02 09:49:21;;;;;;;27.02;14.05;;;;;;;19.53;72.17;101878.06;5090196;28;20478;-70
2023/10/02 09:52:15;;;;;;;26.00;14.02;;;;;;;19.67;72.57;101873.53;5091267;28;20039;-71
2023/10/02 09:55:03;;;;;;;30.20;14.77;;;;;;;19.88;72.19;101873.41;5106017;28;20035;-69
2023/10/02 09:57:34;;;;;;;25.48;14.48;;;;;;;20.07;71.87;101877.22;5094609;28;20028;-71
2023/10/02 10:00:33;;;;;;;28.67;14.30;;;;;;;20.28;71.36;101872.31;5096042;28;20115;-71
2023/10/02 10:03:23;;;;;;;25.73;13.73;;;;;;;20.47;71.01;101886.50;5098591;28;20389;-74
2023/10/02 10:06:06;;;;;;;28.23;14.32;;;;;;;20.63;70.39;101878.78;5101770;28;20031;-68
2023/10/02 10:09:19;;;;;;;28.33;14.73;;;;;;;20.72;70.00;101877.88;5093596;28;20421;-69
2023/10/02 10:11:42;;;;;;;29.95;14.55;;;;;;;20.88;69.99;101870.09;5094937;28;20039;-68
2023/10/02 10:14:54;;;;;;;26.02;13.80;;;;;;;20.91;70.05;101871.47;5101187;28;20032;-67
2023/10/02 10:17:17;;;;;;;28.98;14.48;;;;;;;20.90;69.51;101862.16;5092977;28;20554;-69
2023/10/02 10:20:08;;;;;;;27.58;14.10;;;;;;;20.92;69.82;101861.88;5098942;28;20027;-69
2023/10/02 10:22:39;;;;;;;29.90;15.60;;;;;;;20.89;68.99;101854.00;5113833;28;20038;-68
2023/10/02 10:25:32;;;;;;;25.15;14.25;;;;;;;20.91;69.43;101852.56;5101820;28;20860;-69
2023/10/02 10:27:59;;;;;;;31.75;15.75;;;;;;;20.99;69.08;101846.28;5102267;28;20031;-69
2023/10/02 10:30:24;;;;;;;26.73;13.82;;;;;;;21.05;69.15;101850.69;5108875;28;20028;-68
2023/10/02 10:35:38;;;;;;;29.75;14.68;;;;;;;21.09;67.96;101839.66;5104328;28;20118;-68
2023/10/02 10:38:21;;;;;;;27.65;14.18;;;;;;;21.15;68.21;101841.28;5109583;28;20032;-68
2023/10/02 10:41:00;;;;;;;28.88;15.32;;;;;;;21.11;67.85;101840.19;5100003;28;20047;-67
2023/10/02 10:43:43;;;;;;;25.92;13.68;;;;;;;21.24;68.32;101836.66;5099590;28;20028;-67
2023/10/02 10:46:13;;;;;;;26.98;14.25;;;;;;;21.30;67.45;101838.28;5091640;28;20028;-69
2023/10/02 10:48:40;;;;;;;28.30;14.07;;;;;;;21.30;67.79;101828.97;5091895;28;20059;-66
2023/10/02 10:51:20;;;;;;;23.67;13.43;;;;;;;21.26;68.20;101837.19;5093639;28;20027;-67
2023/10/02 10:53:47;;;;;;;28.38;14.52;;;;;;;21.17;67.96;101832.50;5103215;28;20928;-68
2023/10/02 10:56:19;;;;;;;28.02;13.73;;;;;;;21.15;68.35;101837.63;5100274;28;20466;-70
2023/10/02 10:58:45;;;;;;;;;;;;;;;21.14;68.64;101838.75;5092576;28;20069;-67
2023/10/02 11:01:20;;;;;;;24.15;13.27;;;;;;;21.07;68.84;101827.84;5100830;28;20380;-71
2023/10/02 11:03:54;;;;;;;25.25;13.95;;;;;;;21.13;68.83;101834.25;5099568;28;20490;-69
2023/10/02 11:06:21;;;;;;;23.27;12.57;;;;;;;21.11;69.29;101826.09;5087525;28;20056;-68
2023/10/02 11:09:12;;;;;;;27.60;15.13;;;;;;;21.14;69.05;101821.81;5092262;28;20069;-68
2023/10/02 11:11:50;;;;;;;27.33;13.90;;;;;;;21.18;69.26;101829.41;5091511;28;20036;-69
2023/10/02 11:14:34;;;;;;;26.27;14.13;;;;;;;21.18;68.93;101823.75;5101023;28;20103;-64
2023/10/02 11:17:04;;;;;;;27.17;14.20;;;;;;;21.22;68.96;101819.19;5091795;28;20032;-66
2023/10/02 11:24:45;;;;;;;25.08;13.48;;;;;;;21.37;68.65;101806.84;5095845;28;20112;-69
2023/10/02 11:27:14;;;;;;;25.67;14.07;;;;;;;21.54;68.76;101806.34;5105094;28;20118;-68
2023/10/02 11:29:41;;;;;;;27.20;14.23;;;;;;;21.62;68.29;101800.03;5098683;28;20039;-69
2023/10/02 11:32:20;;;;;;;29.13;14.02;;;;;;;21.69;68.51;101806.13;5095720;28;20031;-70
2023/10/02 11:34:59;;;;;;;24.42;13.10;;;;;;;21.79;68.08;101805.97;5093228;28;20088;-74
2023/10/02 11:37:26;;;;;;;25.08;13.25;;;;;;;21.87;67.12;101798.78;5092766;28;20032;-68
2023/10/02 11:39:54;;;;;;;24.85;12.95;;;;;;;21.97;67.46;101800.63;5100873;28;20028;-69
2023/10/02 11:42:21;;;;;;;24.67;12.35;;;;;;;22.06;66.78;101795.94;5099122;28;20042;-71
2023/10/02 11:44:50;;;;;;;24.05;13.45;;;;;;;22.13;67.30;101798.38;5095150;28;21785;-72
2023/10/02 11:47:15;;;;;;;25.75;13.10;;;;;;;22.17;66.48;101799.47;5093862;28;20031;-72
2023/10/02 11:49:42;;;;;;;24.30;12.82;;;;;;;22.22;66.38;101796.56;5091641;28;20024;-71
2023/10/02 11:52:08;;;;;;;25.70;13.65;;;;;;;22.24;66.53;101795.13;5095034;28;20052;-72
2023/10/02 11:54:39;;;;;;;22.95;12.40;;;;;;;22.24;65.64;101789.47;5098562;28;20450;-68
2023/10/02 11:57:12;;;;;;;21.30;11.90;;;;;;;22.33;65.81;101788.75;5093938;28;20184;-70
2023/10/02 11:59:42;;;;;;;21.98;11.93;;;;;;;22.40;66.46;101778.72;5103851;28;20028;-70
2023/10/02 12:02:11;;;;;;;22.67;11.82;;;;;;;22.45;65.69;101778.59;5093572;28;20024;-70
2023/10/02 12:04:39;;;;;;;24.08;12.50;;;;;;;22.46;65.32;101783.09;5095303;28;20055;-68
2023/10/02 12:07:08;;;;;;;23.65;12.85;;;;;;;22.41;65.41;101776.72;5101864;28;20072;-66
2023/10/02 12:09:33;;;;;;;23.77;11.95;;;;;;;22.34;65.62;101770.63;5091499;28;20035;-66
2023/10/02 12:12:00;;;;;;;26.55;13.52;;;;;;;22.29;65.81;101772.38;5090661;28;20031;-66
2023/10/02 12:14:26;;;;;;;24.17;12.55;;;;;;;22.28;65.71;101764.19;5102363;28;20557;-68
2023/10/02 12:16:57;;;;;;;23.02;12.77;;;;;;;22.23;65.13;101767.97;5095949;28;20028;-65
2023/10/02 12:19:28;;;;;;;25.10;12.50;;;;;;;22.21;65.39;101761.78;5090946;28;20030;-68
2023/10/02 12:21:54;;;;;;;25.83;12.87;;;;;;;22.22;65.43;101759.78;5094029;28;20078;-69
2023/10/02 12:24:20;;;;;;;26.40;12.65;;;;;;;22.20;66.11;101765.75;5095961;28;20301;-67
2023/10/02 12:26:46;;;;;;;23.58;11.68;;;;;;;22.24;66.01;101761.19;5097459;28;20530;-69
2023/10/02 12:29:12;;;;;;;23.40;12.18;;;;;;;22.25;66.21;101759.19;5098671;28;20378;-72
2023/10/02 12:31:38;;;;;;;24.58;12.57;;;;;;;22.27;66.23;101760.53;5089813;28;20032;-67